createdAt,value
2022-07-25T00:00:48.447Z,13.98
2022-07-25T00:03:17.019Z,12.35
2022-07-25T00:05:47.932Z,13.88
2022-07-25T00:08:16.539Z,14.18
2022-07-25T00:10:45.061Z,13.70
2022-07-25T00:13:14.743Z,13.38
2022-07-25T00:15:43.327Z,13.35
2022-07-25T00:18:11.978Z,14.13
2022-07-25T00:20:40.254Z,13.57
2022-07-25T00:23:08.925Z,13.07
2022-07-25T00:25:37.381Z,13.60
2022-07-25T00:28:06.022Z,12.80
2022-07-25T00:30:35.699Z,13.70
2022-07-25T00:33:04.069Z,13.55
2022-07-25T00:35:32.406Z,13.93
2022-07-25T00:38:00.724Z,13.18
2022-07-25T00:40:29.182Z,13.15
2022-07-25T00:42:57.548Z,13.30
2022-07-25T00:45:26.177Z,13.52
2022-07-25T00:47:55.916Z,13.43
2022-07-25T00:50:24.521Z,13.95
2022-07-25T00:52:53.208Z,13.52
2022-07-25T00:55:22.997Z,12.95
2022-07-25T00:57:51.256Z,13.75
2022-07-25T01:00:19.912Z,13.43
2022-07-25T01:02:48.930Z,12.98
2022-07-25T01:05:20.614Z,12.68
2022-07-25T01:07:49.151Z,13.88
2022-07-25T01:10:17.467Z,13.18
2022-07-25T01:12:49.158Z,13.40
2022-07-25T01:17:45.848Z,12.95
2022-07-25T01:20:17.043Z,13.80
2022-07-25T01:22:46.001Z,13.63
2022-07-25T01:25:15.340Z,13.73
2022-07-25T01:27:45.136Z,13.73
2022-07-25T01:30:15.751Z,13.55
2022-07-25T01:32:44.909Z,12.93
2022-07-25T01:35:14.195Z,14.07
2022-07-25T01:37:45.448Z,14.23
2022-07-25T01:40:15.276Z,13.63
2022-07-25T01:42:43.757Z,13.73
2022-07-25T01:45:14.213Z,14.30
2022-07-25T01:47:42.555Z,13.40
2022-07-25T01:50:11.543Z,12.73
2022-07-25T01:52:40.691Z,14.05
2022-07-25T01:55:10.921Z,13.60
2022-07-25T01:57:40.318Z,13.90
2022-07-25T02:00:13.425Z,14.07
2022-07-25T02:02:41.711Z,13.52
2022-07-25T02:05:10.954Z,13.93
2022-07-25T02:07:39.487Z,13.38
2022-07-25T02:10:08.941Z,13.68
2022-07-25T02:12:39.640Z,13.98
2022-07-25T02:15:08.963Z,14.50
2022-07-25T02:17:37.283Z,13.88
2022-07-25T02:20:08.024Z,14.27
2022-07-25T02:22:36.295Z,13.55
2022-07-25T02:25:04.898Z,14.07
2022-07-25T02:27:33.158Z,15.20
2022-07-25T02:30:02.765Z,13.80
2022-07-25T02:32:31.038Z,14.40
2022-07-25T02:34:59.506Z,14.70
2022-07-25T02:37:27.809Z,13.70
2022-07-25T02:39:56.060Z,14.20
2022-07-25T02:42:24.347Z,14.95
2022-07-25T02:44:52.754Z,13.98
2022-07-25T02:47:22.460Z,14.10
2022-07-25T02:49:50.791Z,13.82
2022-07-25T02:52:19.111Z,14.82
2022-07-25T02:54:47.392Z,14.75
2022-07-25T02:57:15.936Z,14.23
2022-07-25T02:59:44.204Z,14.55
2022-07-25T03:02:12.547Z,15.25
2022-07-25T03:04:42.223Z,15.05
2022-07-25T03:07:10.467Z,14.63
2022-07-25T03:09:38.768Z,14.38
2022-07-25T03:12:07.463Z,14.68
2022-07-25T03:14:36.142Z,15.18
2022-07-25T03:17:04.600Z,14.80
2022-07-25T03:19:32.896Z,14.77
2022-07-25T03:22:02.472Z,14.88
2022-07-25T03:24:30.735Z,14.55
2022-07-25T03:26:59.058Z,13.57
2022-07-25T03:29:27.290Z,14.65
2022-07-25T03:31:55.926Z,14.63
2022-07-25T03:34:24.650Z,14.25
2022-07-25T03:36:53.161Z,15.45
2022-07-25T03:39:24.502Z,13.88
2022-07-25T03:41:53.507Z,14.75
2022-07-25T03:44:22.296Z,14.32
2022-07-25T03:46:50.898Z,14.30
2022-07-25T03:49:19.521Z,13.38
2022-07-25T03:51:48.139Z,14.10
2022-07-25T03:54:16.373Z,13.93
2022-07-25T03:56:47.739Z,14.35
2022-07-25T03:59:18.229Z,13.68
2022-07-25T04:01:48.322Z,14.65
2022-07-25T04:04:17.370Z,14.30
2022-07-25T04:06:45.927Z,13.80
2022-07-25T04:09:15.724Z,14.50
2022-07-25T04:11:45.544Z,14.52
2022-07-25T04:14:14.369Z,14.38
2022-07-25T04:16:43.003Z,14.27
2022-07-25T04:19:12.104Z,14.00
2022-07-25T04:21:40.697Z,14.32
2022-07-25T04:24:09.706Z,14.85
2022-07-25T04:26:38.397Z,14.75
2022-07-25T04:29:08.019Z,14.40
2022-07-25T04:31:36.707Z,13.73
2022-07-25T04:34:05.531Z,13.90
2022-07-25T04:36:34.249Z,14.02
2022-07-25T04:39:02.497Z,14.38
2022-07-25T04:41:31.315Z,14.75
2022-07-25T04:43:59.596Z,14.95
2022-07-25T04:46:29.275Z,13.90
2022-07-25T04:48:57.615Z,13.40
2022-07-25T04:51:25.938Z,14.38
2022-07-25T04:53:54.406Z,14.55
2022-07-25T04:56:22.641Z,15.32
2022-07-25T04:58:50.957Z,14.25
2022-07-25T05:01:19.381Z,14.88
2022-07-25T05:03:50.303Z,14.80
2022-07-25T05:06:19.574Z,13.35
2022-07-25T05:08:48.256Z,14.73
2022-07-25T05:11:16.628Z,14.25
2022-07-25T05:13:44.866Z,13.93
2022-07-25T05:16:13.276Z,13.70
2022-07-25T05:18:41.698Z,13.38
2022-07-25T05:21:13.536Z,13.55
2022-07-25T05:23:42.644Z,13.23
2022-07-25T05:26:10.901Z,13.80
2022-07-25T05:28:39.499Z,14.52
2022-07-25T05:31:08.014Z,14.20
2022-07-25T05:33:36.411Z,14.07
2022-07-25T05:36:05.256Z,13.57
2022-07-25T05:38:34.898Z,14.68
2022-07-25T05:41:03.641Z,13.88
2022-07-25T05:43:32.046Z,13.80
2022-07-25T05:46:03.922Z,12.40
2022-07-25T05:48:32.614Z,13.20
2022-07-25T05:51:01.840Z,12.65
2022-07-25T05:53:30.141Z,13.10
2022-07-25T05:56:01.071Z,12.95
2022-07-25T05:58:30.171Z,12.75
2022-07-25T06:00:58.816Z,12.23
2022-07-25T06:03:27.469Z,13.52
2022-07-25T06:05:57.410Z,11.93
2022-07-25T06:08:28.647Z,12.52
2022-07-25T06:10:59.631Z,11.90
2022-07-25T06:13:28.959Z,12.80
2022-07-25T06:15:57.552Z,12.93
2022-07-25T06:18:26.735Z,13.18
2022-07-25T06:20:55.161Z,12.65
2022-07-25T06:23:23.558Z,11.95
2022-07-25T06:25:56.027Z,11.82
2022-07-25T06:28:25.649Z,12.35
2022-07-25T06:30:54.109Z,12.38
2022-07-25T06:33:22.581Z,12.77
2022-07-25T06:35:50.875Z,11.52
2022-07-25T06:38:19.764Z,12.48
2022-07-25T06:40:48.123Z,12.15
2022-07-25T06:43:16.355Z,11.88
2022-07-25T06:45:47.672Z,11.68
2022-07-25T06:48:16.145Z,12.27
2022-07-25T06:50:44.764Z,11.25
2022-07-25T06:53:13.012Z,11.45
2022-07-25T06:55:41.300Z,12.20
2022-07-25T06:58:10.003Z,12.20
2022-07-25T07:00:38.396Z,12.20
2022-07-25T07:03:08.530Z,12.77
2022-07-25T07:05:37.595Z,11.52
2022-07-25T07:08:06.552Z,12.95
2022-07-25T07:10:35.790Z,12.75
2022-07-25T07:13:05.737Z,12.63
2022-07-25T07:15:36.679Z,12.63
2022-07-25T07:18:08.447Z,13.60
2022-07-25T07:20:37.127Z,13.20
2022-07-25T07:23:05.634Z,12.75
2022-07-25T07:25:34.335Z,14.45
2022-07-25T07:28:02.868Z,13.80
2022-07-25T07:30:58.552Z,14.30
2022-07-25T07:33:21.738Z,15.95
2022-07-25T07:35:50.098Z,14.63
2022-07-25T07:38:18.412Z,14.73
2022-07-25T07:40:46.710Z,14.73
2022-07-25T07:43:15.308Z,13.85
2022-07-25T07:45:44.439Z,14.73
2022-07-25T07:48:13.005Z,16.42
2022-07-25T07:50:42.728Z,14.45
2022-07-25T07:53:10.987Z,14.00
2022-07-25T07:55:44.105Z,12.18
2022-07-25T07:58:15.583Z,15.23
2022-07-25T08:00:45.880Z,14.45
2022-07-25T08:03:14.666Z,13.45
2022-07-25T08:05:45.871Z,12.77
2022-07-25T08:08:15.773Z,14.27
2022-07-25T08:10:46.607Z,14.07
2022-07-25T08:13:16.568Z,13.00
2022-07-25T08:15:46.616Z,13.35
2022-07-25T08:18:17.076Z,14.38
2022-07-25T08:20:48.088Z,13.10
2022-07-25T08:23:16.659Z,13.00
2022-07-25T08:25:45.411Z,13.63
2022-07-25T08:28:14.502Z,12.32
2022-07-25T08:30:43.717Z,13.27
2022-07-25T08:33:15.951Z,12.80
2022-07-25T08:35:49.626Z,12.45
2022-07-25T08:38:18.282Z,12.63
2022-07-25T08:40:46.870Z,13.55
2022-07-25T08:43:16.416Z,13.00
2022-07-25T08:45:48.031Z,12.80
2022-07-25T08:48:19.161Z,12.50
2022-07-25T08:50:49.592Z,12.32
2022-07-25T08:53:36.094Z,12.38
2022-07-25T08:56:20.491Z,11.45
2022-07-25T08:58:50.886Z,12.68
2022-07-25T09:01:19.549Z,12.65
2022-07-25T09:03:48.067Z,12.77
2022-07-25T09:06:21.806Z,11.98
2022-07-25T09:08:58.185Z,12.60
2022-07-25T09:11:32.000Z,12.85
2022-07-25T09:14:02.544Z,12.70
2022-07-25T09:16:35.551Z,13.25
2022-07-25T09:19:16.304Z,12.88
2022-07-25T09:21:47.724Z,13.10
2022-07-25T09:24:22.789Z,12.98
2022-07-25T09:26:53.326Z,12.63
2022-07-25T09:29:24.803Z,12.65
2022-07-25T09:31:55.368Z,13.40
2022-07-25T09:34:39.026Z,12.73
2022-07-25T09:37:12.269Z,12.63
2022-07-25T09:39:46.409Z,12.95
2022-07-25T09:42:26.472Z,12.73
2022-07-25T09:45:03.197Z,12.43
2022-07-25T09:47:32.931Z,12.65
2022-07-25T09:50:01.654Z,12.40
2022-07-25T09:52:31.644Z,12.43
2022-07-25T09:55:02.766Z,12.93
2022-07-25T09:57:31.179Z,12.52
2022-07-25T10:00:01.416Z,12.75
2022-07-25T10:02:41.309Z,13.23
2022-07-25T10:05:15.466Z,12.60
2022-07-25T10:07:48.310Z,13.00
2022-07-25T10:10:28.106Z,12.43
2022-07-25T10:13:09.699Z,13.38
2022-07-25T10:15:44.173Z,13.00
2022-07-25T10:18:14.281Z,11.27
2022-07-25T10:20:43.523Z,12.98
2022-07-25T10:23:24.381Z,11.88
2022-07-25T10:26:03.797Z,12.43
2022-07-25T10:28:41.570Z,12.57
2022-07-25T10:31:25.546Z,11.93
2022-07-25T10:33:56.202Z,12.55
2022-07-25T10:36:30.213Z,11.57
2022-07-25T10:39:02.249Z,12.65
2022-07-25T10:41:31.012Z,12.50
2022-07-25T10:44:03.706Z,11.93
2022-07-25T10:46:36.363Z,11.27
2022-07-25T10:49:07.048Z,11.63
2022-07-25T10:51:41.578Z,11.43
2022-07-25T10:54:16.132Z,11.32
2022-07-25T10:56:54.383Z,11.23
2022-07-25T10:59:31.418Z,11.85
2022-07-25T11:02:01.018Z,11.32
2022-07-25T11:04:29.742Z,11.25
2022-07-25T11:06:58.625Z,11.18
2022-07-25T11:09:29.945Z,11.38
2022-07-25T11:12:01.793Z,12.20
2022-07-25T11:14:33.327Z,10.90
2022-07-25T11:17:13.801Z,11.63
2022-07-25T11:19:43.423Z,10.73
2022-07-25T11:22:12.448Z,10.55
2022-07-25T11:24:43.559Z,10.90
2022-07-25T11:27:13.386Z,11.75
2022-07-25T11:29:42.305Z,10.07
2022-07-25T11:32:12.410Z,10.25
2022-07-25T11:34:43.424Z,9.60
2022-07-25T11:37:14.377Z,9.68
2022-07-25T11:39:45.951Z,9.23
2022-07-25T11:42:16.737Z,10.07
2022-07-25T11:44:48.104Z,9.43
2022-07-25T11:47:28.480Z,8.93
2022-07-25T11:49:59.097Z,9.15
2022-07-25T11:52:30.938Z,9.10
2022-07-25T11:55:01.932Z,8.40
2022-07-25T11:57:33.501Z,6.68
2022-07-25T12:02:37.838Z,7.18
2022-07-25T12:05:08.127Z,7.47
2022-07-25T12:07:41.868Z,7.38
2022-07-25T12:10:16.996Z,8.18
2022-07-25T12:12:51.721Z,7.57
2022-07-25T12:15:23.071Z,7.68
2022-07-25T12:17:53.021Z,7.25
2022-07-25T12:20:23.325Z,7.30
2022-07-25T12:22:53.264Z,7.35
2022-07-25T12:25:27.563Z,7.13
2022-07-25T12:27:59.867Z,7.80
2022-07-25T12:30:28.999Z,7.97
2022-07-25T12:32:58.562Z,8.15
2022-07-25T12:35:27.256Z,7.43
2022-07-25T12:37:55.939Z,7.22
2022-07-25T12:40:25.851Z,7.70
2022-07-25T12:42:54.039Z,7.72
2022-07-25T12:45:23.185Z,7.85
2022-07-25T12:47:51.644Z,7.53
2022-07-25T12:50:20.247Z,7.45
2022-07-25T12:52:48.858Z,8.23
2022-07-25T12:55:18.639Z,8.60
2022-07-25T12:57:49.023Z,8.07
2022-07-25T13:00:18.940Z,8.40
2022-07-25T13:02:47.656Z,7.93
2022-07-25T13:05:16.055Z,8.57
2022-07-25T13:07:44.388Z,8.23
2022-07-25T13:10:12.886Z,7.82
2022-07-25T13:12:41.247Z,8.15
2022-07-25T13:15:11.630Z,8.10
2022-07-25T13:17:40.862Z,7.53
2022-07-25T13:20:11.049Z,7.35
2022-07-25T13:22:39.374Z,8.25
2022-07-25T13:25:08.522Z,8.32
2022-07-25T13:27:38.163Z,8.23
2022-07-25T13:30:09.009Z,8.18
2022-07-25T13:32:38.676Z,8.03
2022-07-25T13:35:07.801Z,8.30
2022-07-25T13:37:36.129Z,8.10
2022-07-25T13:40:05.145Z,7.90
2022-07-25T13:42:33.356Z,8.43
2022-07-25T13:45:01.651Z,7.85
2022-07-25T13:47:30.624Z,7.45
2022-07-25T13:50:00.283Z,8.00
2022-07-25T13:52:28.938Z,8.30
2022-07-25T13:54:57.200Z,8.40
2022-07-25T13:57:25.468Z,7.85
2022-07-25T13:59:54.125Z,7.20
2022-07-25T14:02:22.544Z,7.93
2022-07-25T14:04:51.201Z,7.80
2022-07-25T14:07:20.878Z,8.32
2022-07-25T14:09:49.468Z,7.30
2022-07-25T14:12:17.841Z,7.82
2022-07-25T14:14:46.108Z,7.43
2022-07-25T14:17:14.432Z,7.10
2022-07-25T14:19:43.048Z,7.40
2022-07-25T14:22:11.621Z,6.97
2022-07-25T14:24:41.783Z,6.95
2022-07-25T14:27:10.752Z,7.20
2022-07-25T14:29:39.601Z,7.18
2022-07-25T14:32:08.896Z,6.85
2022-07-25T14:34:37.982Z,7.75
2022-07-25T14:37:07.549Z,6.97
2022-07-25T14:39:37.442Z,6.70
2022-07-25T14:42:09.352Z,6.22
2022-07-25T14:44:37.927Z,6.63
2022-07-25T14:47:11.930Z,7.30
2022-07-25T14:49:42.014Z,6.40
2022-07-25T14:52:11.408Z,7.45
2022-07-25T14:54:40.224Z,6.85
2022-07-25T14:57:10.922Z,7.50
2022-07-25T14:59:39.525Z,5.90
2022-07-25T15:02:08.286Z,6.15
2022-07-25T15:04:36.906Z,6.30
2022-07-25T15:07:05.671Z,6.18
2022-07-25T15:09:34.378Z,6.18
2022-07-25T15:12:03.057Z,6.00
2022-07-25T15:14:33.029Z,5.43
2022-07-25T15:17:01.627Z,6.00
2022-07-25T15:19:30.549Z,5.78
2022-07-25T15:21:59.426Z,5.82
2022-07-25T15:24:29.379Z,6.55
2022-07-25T15:26:58.082Z,6.07
2022-07-25T15:29:27.848Z,5.85
2022-07-25T15:31:57.778Z,5.40
2022-07-25T15:34:26.413Z,4.95
2022-07-25T15:36:56.347Z,4.95
2022-07-25T15:39:24.987Z,4.93
2022-07-25T15:41:53.579Z,4.90
2022-07-25T15:44:22.073Z,4.85
2022-07-25T15:46:50.427Z,5.45
2022-07-25T15:49:21.918Z,5.03
2022-07-25T15:51:50.845Z,5.45
2022-07-25T15:54:19.385Z,5.43
2022-07-25T15:56:48.059Z,5.30
2022-07-25T15:59:16.749Z,5.28
2022-07-25T16:01:45.392Z,5.07
2022-07-25T16:04:14.079Z,5.22
2022-07-25T16:06:44.543Z,4.88
2022-07-25T16:09:13.380Z,4.57
2022-07-25T16:11:41.578Z,4.93
2022-07-25T16:14:10.170Z,4.75
2022-07-25T16:16:38.865Z,4.60
2022-07-25T16:19:09.759Z,4.32
2022-07-25T16:21:39.876Z,4.13
2022-07-25T16:24:11.031Z,4.57
2022-07-25T16:26:39.425Z,4.45
2022-07-25T16:29:08.394Z,4.60
2022-07-25T16:31:36.992Z,4.13
2022-07-25T16:34:05.692Z,3.63
2022-07-25T16:36:33.981Z,3.97
2022-07-25T16:39:03.148Z,4.50
2022-07-25T16:41:32.870Z,4.53
2022-07-25T16:44:01.555Z,4.47
2022-07-25T16:46:30.008Z,4.85
2022-07-25T16:48:58.435Z,4.32
2022-07-25T16:51:26.809Z,4.88
2022-07-25T16:53:55.265Z,5.15
2022-07-25T16:56:23.628Z,4.93
2022-07-25T16:58:53.905Z,5.00
2022-07-25T17:01:22.305Z,5.40
2022-07-25T17:03:50.712Z,5.20
2022-07-25T17:06:19.057Z,6.00
2022-07-25T17:08:47.721Z,5.55
2022-07-25T17:11:16.093Z,6.28
2022-07-25T17:13:44.432Z,5.65
2022-07-25T17:16:14.156Z,6.20
2022-07-25T17:18:42.501Z,7.07
2022-07-25T17:21:10.822Z,7.43
2022-07-25T17:23:39.115Z,7.13
2022-07-25T17:26:07.626Z,6.75
2022-07-25T17:28:36.311Z,7.40
2022-07-25T17:31:04.694Z,7.07
2022-07-25T17:33:34.437Z,7.50
2022-07-25T17:36:02.689Z,7.13
2022-07-25T17:38:34.863Z,7.80
2022-07-25T17:41:03.522Z,8.02
2022-07-25T17:43:31.896Z,7.63
2022-07-25T17:46:00.291Z,7.53
2022-07-25T17:48:28.722Z,7.88
2022-07-25T17:50:58.436Z,7.90
2022-07-25T17:53:26.855Z,7.50
2022-07-25T17:55:55.154Z,7.78
2022-07-25T17:58:23.512Z,7.80
2022-07-25T18:00:51.776Z,7.47
2022-07-25T18:03:20.223Z,7.60
2022-07-25T18:05:48.534Z,7.75
2022-07-25T18:08:18.232Z,7.60
2022-07-25T18:10:46.482Z,6.80
2022-07-25T18:13:17.604Z,7.30
2022-07-25T18:15:46.059Z,7.47
2022-07-25T18:18:20.016Z,7.43
2022-07-25T18:20:49.048Z,7.88
2022-07-25T18:23:18.844Z,7.43
2022-07-25T18:25:47.339Z,7.30
2022-07-25T18:28:15.960Z,6.50
2022-07-25T18:30:44.451Z,7.00
2022-07-25T18:33:12.974Z,7.65
2022-07-25T18:35:41.280Z,7.70
2022-07-25T18:38:11.556Z,7.65
2022-07-25T18:40:41.198Z,7.53
2022-07-25T18:43:10.087Z,8.00
2022-07-25T18:45:39.529Z,78.43
2022-07-25T18:48:08.555Z,134.95
2022-07-25T18:50:37.192Z,109.38
2022-07-25T18:53:05.797Z,158.40
2022-07-25T18:55:34.400Z,180.07
2022-07-25T18:58:04.139Z,132.13
2022-07-25T19:00:32.746Z,101.25
2022-07-25T19:03:01.261Z,75.90
2022-07-25T19:05:29.802Z,202.70
2022-07-25T19:08:01.082Z,166.80
2022-07-25T19:10:29.554Z,192.10
2022-07-25T19:12:58.614Z,188.52
2022-07-25T19:15:28.591Z,172.18
2022-07-25T19:17:57.595Z,146.27
2022-07-25T19:20:27.136Z,50.78
2022-07-25T19:22:55.695Z,40.90
2022-07-25T19:25:24.349Z,36.80
2022-07-25T19:27:52.898Z,33.20
2022-07-25T19:30:21.527Z,26.13
2022-07-25T19:32:51.157Z,21.15
2022-07-25T19:35:25.840Z,22.92
2022-07-25T19:37:54.949Z,19.00
2022-07-25T19:40:23.543Z,17.55
2022-07-25T19:42:52.176Z,14.98
2022-07-25T19:45:20.833Z,13.88
2022-07-25T19:47:51.062Z,13.38
2022-07-25T19:50:19.680Z,13.18
2022-07-25T19:52:48.542Z,10.93
2022-07-25T19:55:17.314Z,11.13
2022-07-25T19:57:45.951Z,11.23
2022-07-25T20:00:16.850Z,10.32
2022-07-25T20:02:45.619Z,10.70
2022-07-25T20:05:15.552Z,10.38
2022-07-25T20:07:44.222Z,10.35
2022-07-25T20:10:12.809Z,9.75
2022-07-25T20:12:47.106Z,9.65
2022-07-25T20:15:15.866Z,9.45
2022-07-25T20:17:44.470Z,9.30
2022-07-25T20:20:13.398Z,9.20
2022-07-25T20:22:44.488Z,9.82
2022-07-25T20:25:16.634Z,9.40
2022-07-25T20:27:45.385Z,9.65
2022-07-25T20:30:14.359Z,9.30
2022-07-25T20:32:43.008Z,10.32
2022-07-25T20:35:11.626Z,9.32
2022-07-25T20:37:40.274Z,9.93
2022-07-25T20:40:12.476Z,9.25
2022-07-25T20:42:41.120Z,9.02
2022-07-25T20:45:10.300Z,8.48
2022-07-25T20:47:38.940Z,8.07
2022-07-25T20:50:09.440Z,8.05
2022-07-25T20:52:39.394Z,8.25
2022-07-25T20:55:09.142Z,8.07
2022-07-25T20:57:39.122Z,8.27
2022-07-25T21:00:08.640Z,8.15
2022-07-25T21:02:37.314Z,7.72
2022-07-25T21:05:06.278Z,7.80
2022-07-25T21:07:34.942Z,8.00
2022-07-25T21:10:03.686Z,7.63
2022-07-25T21:12:32.969Z,7.43
2022-07-25T21:15:03.452Z,7.68
2022-07-25T21:17:32.106Z,7.30
2022-07-25T21:20:00.880Z,6.90
2022-07-25T21:22:29.596Z,6.72
2022-07-25T21:24:58.381Z,7.63
2022-07-25T21:27:27.107Z,7.25
2022-07-25T21:29:55.880Z,6.82
2022-07-25T21:32:25.866Z,6.93
2022-07-25T21:34:54.462Z,7.18
2022-07-25T21:37:23.088Z,68.07
2022-07-25T21:39:51.742Z,115.07
2022-07-25T21:42:20.345Z,144.65
2022-07-25T21:44:48.927Z,124.95
2022-07-25T21:47:17.533Z,169.13
2022-07-25T21:50:04.945Z,96.20
2022-07-25T21:52:34.763Z,71.90
2022-07-25T21:55:04.589Z,59.42
2022-07-25T21:57:33.301Z,50.88
2022-07-25T22:00:02.228Z,45.17
2022-07-25T22:02:31.712Z,77.28
2022-07-25T22:05:01.658Z,75.68
2022-07-25T22:07:30.326Z,108.60
2022-07-25T22:09:59.020Z,147.60
2022-07-25T22:12:27.601Z,138.57
2022-07-25T22:14:56.220Z,121.22
2022-07-25T22:17:24.865Z,97.40
2022-07-25T22:19:53.853Z,81.68
2022-07-25T22:22:23.981Z,69.68
2022-07-25T22:24:52.631Z,60.13
2022-07-25T22:27:21.404Z,50.40
2022-07-25T22:29:50.044Z,52.83
2022-07-25T22:32:18.673Z,49.03
2022-07-25T22:34:47.265Z,47.15
2022-07-25T22:37:15.861Z,38.45
2022-07-25T22:39:45.875Z,31.25
2022-07-25T22:42:16.381Z,30.48
2022-07-25T22:44:45.178Z,29.55
2022-07-25T22:47:13.805Z,18.80
2022-07-25T22:49:42.379Z,16.38
2022-07-25T22:52:11.029Z,19.00
2022-07-25T22:54:39.642Z,16.42
2022-07-25T22:57:09.888Z,13.13
2022-07-25T22:59:38.487Z,12.65
2022-07-25T23:02:07.194Z,11.13
2022-07-25T23:04:35.939Z,9.60
2022-07-25T23:07:04.664Z,10.50
2022-07-25T23:09:36.317Z,9.38
2022-07-25T23:12:05.718Z,7.97
2022-07-25T23:14:35.663Z,8.13
2022-07-25T23:17:20.103Z,7.30
2022-07-25T23:19:50.256Z,7.75
2022-07-25T23:22:19.155Z,7.20
2022-07-25T23:24:47.975Z,7.60
2022-07-25T23:27:16.891Z,6.43
2022-07-25T23:29:46.831Z,6.13
2022-07-25T23:32:15.552Z,5.93
2022-07-25T23:34:44.146Z,5.85
2022-07-25T23:37:12.837Z,5.68
2022-07-25T23:39:41.407Z,5.25
2022-07-25T23:42:10.041Z,5.70
2022-07-25T23:44:40.904Z,5.05
2022-07-25T23:47:10.929Z,5.00
2022-07-25T23:49:39.623Z,5.35
2022-07-25T23:52:08.196Z,5.00
2022-07-25T23:54:38.248Z,5.28
2022-07-25T23:57:07.176Z,4.97
2022-07-25T23:59:36.157Z,5.68
